sensor_id;sensor_type;location;lat;lon;timestamp;pressure;altitude;pressure_sealevel;temperature;humidity
4326;BME280;58429;49.826;10.880;2023-06-22T00:00:12;98865;;;19.35;77.8
4326;BME280;58429;49.826;10.880;2023-06-22T00:01:12;98866;;;19.33;77.94
4326;BME280;58429;49.826;10.880;2023-06-22T00:02:12;98861;;;19.31;78.17
4326;BME280;58429;49.826;10.880;2023-06-22T00:03:12;98858;;;19.3;78.72
4326;BME280;58429;49.826;10.880;2023-06-22T00:04:12;98862;;;19.23;78.59
4326;BME280;58429;49.826;10.880;2023-06-22T00:05:12;98857;;;19.24;78.52
4326;BME280;58429;49.826;10.880;2023-06-22T00:06:12;98855;;;19.28;78.41
4326;BME280;58429;49.826;10.880;2023-06-22T00:07:12;98848;;;19.28;78.3
4326;BME280;58429;49.826;10.880;2023-06-22T00:08:12;98849;;;19.28;78.35
4326;BME280;58429;49.826;10.880;2023-06-22T00:09:12;98849;;;19.28;78.32
4326;BME280;58429;49.826;10.880;2023-06-22T00:10:12;98846;;;19.27;78.07
4326;BME280;58429;49.826;10.880;2023-06-22T00:11:12;98848;;;19.27;77.45
4326;BME280;58429;49.826;10.880;2023-06-22T00:12:12;98854;;;19.25;76.76
4326;BME280;58429;49.826;10.880;2023-06-22T00:13:12;98856;;;19.18;76.49
4326;BME280;58429;49.826;10.880;2023-06-22T00:14:12;98856;;;19.17;76.44
4326;BME280;58429;49.826;10.880;2023-06-22T00:15:12;98854;;;19.07;76.47
4326;BME280;58429;49.826;10.880;2023-06-22T00:16:12;98856;;;19.02;76.73
4326;BME280;58429;49.826;10.880;2023-06-22T00:17:12;98857;;;19.05;76.9
4326;BME280;58429;49.826;10.880;2023-06-22T00:18:12;98856;;;19.04;77.14
4326;BME280;58429;49.826;10.880;2023-06-22T00:19:12;98854;;;18.99;77.22
4326;BME280;58429;49.826;10.880;2023-06-22T00:20:12;98862;;;19.04;77.23
4326;BME280;58429;49.826;10.880;2023-06-22T00:21:12;98852;;;19.06;77.27
4326;BME280;58429;49.826;10.880;2023-06-22T00:22:13;98857;;;19.04;77.21
4326;BME280;58429;49.826;10.880;2023-06-22T00:23:12;98855;;;19.01;77.44
4326;BME280;58429;49.826;10.880;2023-06-22T00:24:12;98864;;;19;77.96
4326;BME280;58429;49.826;10.880;2023-06-22T00:25:12;98868;;;18.95;78.07
4326;BME280;58429;49.826;10.880;2023-06-22T00:26:12;98869;;;18.94;78.33
4326;BME280;58429;49.826;10.880;2023-06-22T00:27:12;98866;;;18.94;78.45
4326;BME280;58429;49.826;10.880;2023-06-22T00:28:12;98870;;;18.89;78.68
4326;BME280;58429;49.826;10.880;2023-06-22T00:29:12;98863;;;18.87;78.96
4326;BME280;58429;49.826;10.880;2023-06-22T00:30:12;98860;;;18.89;79.06
4326;BME280;58429;49.826;10.880;2023-06-22T00:31:12;98864;;;18.88;79.02
4326;BME280;58429;49.826;10.880;2023-06-22T00:32:12;98862;;;18.91;79.05
4326;BME280;58429;49.826;10.880;2023-06-22T00:33:12;98872;;;18.86;78.97
4326;BME280;58429;49.826;10.880;2023-06-22T00:34:12;98873;;;18.91;78.72
4326;BME280;58429;49.826;10.880;2023-06-22T00:35:12;98882;;;18.91;78.59
4326;BME280;58429;49.826;10.880;2023-06-22T00:36:12;98876;;;18.92;78.66
4326;BME280;58429;49.826;10.880;2023-06-22T00:37:12;98876;;;18.92;78.71
4326;BME280;58429;49.826;10.880;2023-06-22T00:38:12;98880;;;18.93;78.84
4326;BME280;58429;49.826;10.880;2023-06-22T00:39:12;98880;;;18.91;78.75
4326;BME280;58429;49.826;10.880;2023-06-22T00:40:12;98891;;;18.9;78.85
4326;BME280;58429;49.826;10.880;2023-06-22T00:41:12;98887;;;18.85;78.94
4326;BME280;58429;49.826;10.880;2023-06-22T00:42:12;98884;;;18.83;79.11
4326;BME280;58429;49.826;10.880;2023-06-22T00:43:12;98895;;;18.8;79
4326;BME280;58429;49.826;10.880;2023-06-22T00:44:12;98896;;;18.79;79.33
4326;BME280;58429;49.826;10.880;2023-06-22T00:45:12;98896;;;18.74;80.41
4326;BME280;58429;49.826;10.880;2023-06-22T00:46:12;98901;;;18.61;80.54
4326;BME280;58429;49.826;10.880;2023-06-22T00:47:12;98899;;;18.52;80.83
4326;BME280;58429;49.826;10.880;2023-06-22T00:48:12;98898;;;18.48;81.03
4326;BME280;58429;49.826;10.880;2023-06-22T00:49:12;98903;;;18.41;81.23
4326;BME280;58429;49.826;10.880;2023-06-22T00:50:13;98898;;;18.42;80.79
4326;BME280;58429;49.826;10.880;2023-06-22T00:51:12;98897;;;18.42;80.8
4326;BME280;58429;49.826;10.880;2023-06-22T00:52:12;98897;;;18.38;80.88
4326;BME280;58429;49.826;10.880;2023-06-22T00:53:12;98896;;;18.43;80.87
4326;BME280;58429;49.826;10.880;2023-06-22T00:54:12;98894;;;18.45;81.15
4326;BME280;58429;49.826;10.880;2023-06-22T00:55:12;98890;;;18.42;81.28
4326;BME280;58429;49.826;10.880;2023-06-22T00:56:12;98886;;;18.47;81.18
4326;BME280;58429;49.826;10.880;2023-06-22T00:57:12;98889;;;18.49;81.07
4326;BME280;58429;49.826;10.880;2023-06-22T00:58:12;98884;;;18.49;80.93
4326;BME280;58429;49.826;10.880;2023-06-22T00:59:12;98877;;;18.51;80.6
4326;BME280;58429;49.826;10.880;2023-06-22T01:00:12;98875;;;18.55;80.27
4326;BME280;58429;49.826;10.880;2023-06-22T01:01:12;98870;;;18.57;80.09
4326;BME280;58429;49.826;10.880;2023-06-22T01:02:12;98865;;;18.55;79.97
4326;BME280;58429;49.826;10.880;2023-06-22T01:03:12;98871;;;18.55;79.84
4326;BME280;58429;49.826;10.880;2023-06-22T01:04:12;98857;;;18.55;79.76
4326;BME280;58429;49.826;10.880;2023-06-22T01:05:12;98865;;;18.52;79.68
4326;BME280;58429;49.826;10.880;2023-06-22T01:06:13;98860;;;18.57;79.64
4326;BME280;58429;49.826;10.880;2023-06-22T01:07:13;98865;;;18.54;79.7
4326;BME280;58429;49.826;10.880;2023-06-22T01:08:16;98867;;;18.53;79.9
4326;BME280;58429;49.826;10.880;2023-06-22T01:09:14;98859;;;18.53;80.27
4326;BME280;58429;49.826;10.880;2023-06-22T01:10:14;98854;;;18.56;80.41
4326;BME280;58429;49.826;10.880;2023-06-22T01:11:14;98842;;;18.55;80.52
4326;BME280;58429;49.826;10.880;2023-06-22T01:12:12;98837;;;18.57;80.52
4326;BME280;58429;49.826;10.880;2023-06-22T01:13:15;98832;;;18.53;80.41
4326;BME280;58429;49.826;10.880;2023-06-22T01:14:14;98824;;;18.56;80.31
4326;BME280;58429;49.826;10.880;2023-06-22T01:15:14;98816;;;18.52;80.15
4326;BME280;58429;49.826;10.880;2023-06-22T01:16:13;98810;;;18.55;80.09
4326;BME280;58429;49.826;10.880;2023-06-22T01:17:12;98802;;;18.56;79.99
4326;BME280;58429;49.826;10.880;2023-06-22T01:18:12;98798;;;18.5;79.88
4326;BME280;58429;49.826;10.880;2023-06-22T01:19:18;98799;;;18.49;79.78
4326;BME280;58429;49.826;10.880;2023-06-22T01:20:12;98805;;;18.48;79.69
4326;BME280;58429;49.826;10.880;2023-06-22T01:21:14;98791;;;18.47;79.69
4326;BME280;58429;49.826;10.880;2023-06-22T01:22:12;98788;;;18.47;79.7
4326;BME280;58429;49.826;10.880;2023-06-22T01:23:16;98784;;;18.49;79.69
4326;BME280;58429;49.826;10.880;2023-06-22T01:24:15;98774;;;18.51;79.69
4326;BME280;58429;49.826;10.880;2023-06-22T01:25:13;98779;;;18.49;79.8
4326;BME280;58429;49.826;10.880;2023-06-22T01:26:14;98778;;;18.53;79.9
4326;BME280;58429;49.826;10.880;2023-06-22T01:27:15;98779;;;18.49;79.95
4326;BME280;58429;49.826;10.880;2023-06-22T01:28:17;98764;;;18.5;80.14
4326;BME280;58429;49.826;10.880;2023-06-22T01:29:12;98756;;;18.53;80.24
4326;BME280;58429;49.826;10.880;2023-06-22T01:30:12;98756;;;18.54;80.33
4326;BME280;58429;49.826;10.880;2023-06-22T01:31:13;98758;;;18.51;80.39
4326;BME280;58429;49.826;10.880;2023-06-22T01:32:12;98768;;;18.49;80.45
4326;BME280;58429;49.826;10.880;2023-06-22T01:33:12;98777;;;18.47;80.89
4326;BME280;58429;49.826;10.880;2023-06-22T01:34:12;98778;;;18.43;81.26
4326;BME280;58429;49.826;10.880;2023-06-22T01:35:12;98785;;;18.38;81.56
4326;BME280;58429;49.826;10.880;2023-06-22T01:36:12;98791;;;18.36;82.05
4326;BME280;58429;49.826;10.880;2023-06-22T01:37:12;98789;;;18.36;82.62
4326;BME280;58429;49.826;10.880;2023-06-22T01:38:12;98793;;;18.36;82.36
4326;BME280;58429;49.826;10.880;2023-06-22T01:39:12;98786;;;18.31;82.32
4326;BME280;58429;49.826;10.880;2023-06-22T01:40:12;98783;;;18.32;82.4
4326;BME280;58429;49.826;10.880;2023-06-22T01:41:12;98780;;;18.35;82.26
4326;BME280;58429;49.826;10.880;2023-06-22T01:42:12;98781;;;18.36;82.21
4326;BME280;58429;49.826;10.880;2023-06-22T01:43:12;98772;;;18.36;82.43
4326;BME280;58429;49.826;10.880;2023-06-22T01:44:12;98773;;;18.36;82.36
4326;BME280;58429;49.826;10.880;2023-06-22T01:45:12;98763;;;18.36;82.3
4326;BME280;58429;49.826;10.880;2023-06-22T01:46:12;98768;;;18.35;82.18
4326;BME280;58429;49.826;10.880;2023-06-22T01:47:12;98771;;;18.36;81.92
4326;BME280;58429;49.826;10.880;2023-06-22T01:48:12;98769;;;18.37;81.83
4326;BME280;58429;49.826;10.880;2023-06-22T01:49:12;98765;;;18.36;81.77
4326;BME280;58429;49.826;10.880;2023-06-22T01:50:12;98772;;;18.36;81.65
4326;BME280;58429;49.826;10.880;2023-06-22T01:51:12;98772;;;18.34;81.49
4326;BME280;58429;49.826;10.880;2023-06-22T01:52:12;98770;;;18.35;81.47
4326;BME280;58429;49.826;10.880;2023-06-22T01:53:12;98771;;;18.35;81.51
4326;BME280;58429;49.826;10.880;2023-06-22T01:54:12;98769;;;18.36;81.49
4326;BME280;58429;49.826;10.880;2023-06-22T01:55:12;98772;;;18.34;81.44
4326;BME280;58429;49.826;10.880;2023-06-22T01:56:12;98775;;;18.34;81.47
4326;BME280;58429;49.826;10.880;2023-06-22T01:57:12;98780;;;18.34;81.41
4326;BME280;58429;49.826;10.880;2023-06-22T01:58:12;98783;;;18.32;81.55
4326;BME280;58429;49.826;10.880;2023-06-22T01:59:14;98786;;;18.31;81.75
4326;BME280;58429;49.826;10.880;2023-06-22T02:00:13;98797;;;18.26;81.98
4326;BME280;58429;49.826;10.880;2023-06-22T02:01:13;98797;;;18.29;82
4326;BME280;58429;49.826;10.880;2023-06-22T02:02:12;98798;;;18.29;82.03
4326;BME280;58429;49.826;10.880;2023-06-22T02:03:13;98798;;;18.26;82.64
4326;BME280;58429;49.826;10.880;2023-06-22T02:04:13;98799;;;18.19;82.8
4326;BME280;58429;49.826;10.880;2023-06-22T02:05:12;98804;;;18.22;82.69
4326;BME280;58429;49.826;10.880;2023-06-22T02:06:14;98805;;;18.24;82.75
4326;BME280;58429;49.826;10.880;2023-06-22T02:07:13;98809;;;18.24;82.69
4326;BME280;58429;49.826;10.880;2023-06-22T02:08:13;98810;;;18.24;82.45
4326;BME280;58429;49.826;10.880;2023-06-22T02:09:14;98818;;;18.24;82.22
4326;BME280;58429;49.826;10.880;2023-06-22T02:10:12;98818;;;18.25;82.1
4326;BME280;58429;49.826;10.880;2023-06-22T02:11:12;98828;;;18.22;82.02
4326;BME280;58429;49.826;10.880;2023-06-22T02:12:12;98818;;;18.25;82
4326;BME280;58429;49.826;10.880;2023-06-22T02:13:12;98825;;;18.26;81.95
4326;BME280;58429;49.826;10.880;2023-06-22T02:14:12;98826;;;18.22;81.99
4326;BME280;58429;49.826;10.880;2023-06-22T02:15:12;98823;;;18.21;81.97
4326;BME280;58429;49.826;10.880;2023-06-22T02:16:12;98829;;;18.19;81.95
4326;BME280;58429;49.826;10.880;2023-06-22T02:17:12;98821;;;18.2;81.86
4326;BME280;58429;49.826;10.880;2023-06-22T02:18:12;98821;;;18.17;81.98
4326;BME280;58429;49.826;10.880;2023-06-22T02:19:12;98823;;;18.16;82.17
4326;BME280;58429;49.826;10.880;2023-06-22T02:20:12;98821;;;18.14;82.12
4326;BME280;58429;49.826;10.880;2023-06-22T02:21:12;98816;;;18.21;82.09
4326;BME280;58429;49.826;10.880;2023-06-22T02:22:12;98812;;;18.18;81.89
4326;BME280;58429;49.826;10.880;2023-06-22T02:23:12;98810;;;18.17;81.84
4326;BME280;58429;49.826;10.880;2023-06-22T02:24:12;98811;;;18.2;81.8
4326;BME280;58429;49.826;10.880;2023-06-22T02:25:12;98812;;;18.21;81.8
4326;BME280;58429;49.826;10.880;2023-06-22T02:26:12;98811;;;18.2;81.84
4326;BME280;58429;49.826;10.880;2023-06-22T02:27:12;98815;;;18.17;81.89
4326;BME280;58429;49.826;10.880;2023-06-22T02:28:12;98823;;;18.17;81.97
4326;BME280;58429;49.826;10.880;2023-06-22T02:29:12;98821;;;18.16;81.93
4326;BME280;58429;49.826;10.880;2023-06-22T02:30:12;98832;;;18.17;82.04
4326;BME280;58429;49.826;10.880;2023-06-22T02:31:12;98822;;;18.17;82.16
4326;BME280;58429;49.826;10.880;2023-06-22T02:32:12;98833;;;18.16;82.17
4326;BME280;58429;49.826;10.880;2023-06-22T02:33:12;98841;;;18.12;82.09
4326;BME280;58429;49.826;10.880;2023-06-22T02:34:12;98842;;;18.14;82.33
4326;BME280;58429;49.826;10.880;2023-06-22T02:35:12;98857;;;18.05;82.47
4326;BME280;58429;49.826;10.880;2023-06-22T02:36:12;98867;;;17.99;82.86
4326;BME280;58429;49.826;10.880;2023-06-22T02:37:12;98881;;;17.96;83.56
4326;BME280;58429;49.826;10.880;2023-06-22T02:38:12;98895;;;17.93;84.22
4326;BME280;58429;49.826;10.880;2023-06-22T02:39:12;98922;;;17.88;84.42
4326;BME280;58429;49.826;10.880;2023-06-22T02:40:12;98946;;;17.86;84.59
4326;BME280;58429;49.826;10.880;2023-06-22T02:41:12;98975;;;17.83;85.24
4326;BME280;58429;49.826;10.880;2023-06-22T02:42:13;99006;;;17.77;86.74
4326;BME280;58429;49.826;10.880;2023-06-22T02:43:12;99035;;;17.78;87.42
4326;BME280;58429;49.826;10.880;2023-06-22T02:44:12;99058;;;17.68;87.44
4326;BME280;58429;49.826;10.880;2023-06-22T02:45:12;99080;;;17.64;87.6
4326;BME280;58429;49.826;10.880;2023-06-22T02:46:12;99085;;;17.62;87.79
4326;BME280;58429;49.826;10.880;2023-06-22T02:47:12;99094;;;17.62;87.83
4326;BME280;58429;49.826;10.880;2023-06-22T02:48:12;99087;;;17.7;88.24
4326;BME280;58429;49.826;10.880;2023-06-22T02:49:12;99089;;;17.71;88.29
4326;BME280;58429;49.826;10.880;2023-06-22T02:50:12;99087;;;17.76;88.27
4326;BME280;58429;49.826;10.880;2023-06-22T02:51:12;99085;;;17.81;88.12
4326;BME280;58429;49.826;10.880;2023-06-22T02:52:12;99076;;;17.86;88.26
4326;BME280;58429;49.826;10.880;2023-06-22T02:53:12;99067;;;17.86;88.02
4326;BME280;58429;49.826;10.880;2023-06-22T02:54:12;99056;;;17.91;87.78
4326;BME280;58429;49.826;10.880;2023-06-22T02:55:12;99034;;;17.93;87.76
4326;BME280;58429;49.826;10.880;2023-06-22T02:56:12;99007;;;17.93;87.56
4326;BME280;58429;49.826;10.880;2023-06-22T02:57:12;98987;;;17.96;87.37
4326;BME280;58429;49.826;10.880;2023-06-22T02:58:12;98967;;;17.99;87.45
4326;BME280;58429;49.826;10.880;2023-06-22T02:59:12;98954;;;18;87.59
4326;BME280;58429;49.826;10.880;2023-06-22T03:00:13;98968;;;17.97;87.56
4326;BME280;58429;49.826;10.880;2023-06-22T03:01:12;98985;;;18.01;87.35
4326;BME280;58429;49.826;10.880;2023-06-22T03:02:12;98992;;;18.05;87.35
4326;BME280;58429;49.826;10.880;2023-06-22T03:03:12;98998;;;18.09;87.37
4326;BME280;58429;49.826;10.880;2023-06-22T03:04:12;99000;;;18.12;87.4
4326;BME280;58429;49.826;10.880;2023-06-22T03:05:13;98993;;;18.16;87.53
4326;BME280;58429;49.826;10.880;2023-06-22T03:06:12;98997;;;18.13;87.41
4326;BME280;58429;49.826;10.880;2023-06-22T03:07:12;98992;;;18.14;87.48
4326;BME280;58429;49.826;10.880;2023-06-22T03:08:12;98989;;;18.17;87.49
4326;BME280;58429;49.826;10.880;2023-06-22T03:09:12;98983;;;18.12;87.6
4326;BME280;58429;49.826;10.880;2023-06-22T03:10:13;98980;;;18.12;87.5
4326;BME280;58429;49.826;10.880;2023-06-22T03:11:12;98978;;;18.1;87.46
4326;BME280;58429;49.826;10.880;2023-06-22T03:12:12;98972;;;18.12;87.53
4326;BME280;58429;49.826;10.880;2023-06-22T03:13:12;98965;;;18.21;87.36
4326;BME280;58429;49.826;10.880;2023-06-22T03:14:12;98967;;;18.15;87.15
4326;BME280;58429;49.826;10.880;2023-06-22T03:15:12;98965;;;18.23;87.02
4326;BME280;58429;49.826;10.880;2023-06-22T03:16:12;98968;;;18.25;86.93
4326;BME280;58429;49.826;10.880;2023-06-22T03:17:12;98965;;;18.3;86.83
4326;BME280;58429;49.826;10.880;2023-06-22T03:18:12;98959;;;18.3;87.05
4326;BME280;58429;49.826;10.880;2023-06-22T03:19:12;98952;;;18.32;86.86
4326;BME280;58429;49.826;10.880;2023-06-22T03:20:12;98947;;;18.36;86.65
4326;BME280;58429;49.826;10.880;2023-06-22T03:21:12;98942;;;18.37;86.54
4326;BME280;58429;49.826;10.880;2023-06-22T03:22:12;98945;;;18.38;86.4
4326;BME280;58429;49.826;10.880;2023-06-22T03:23:12;98933;;;18.39;86.32
4326;BME280;58429;49.826;10.880;2023-06-22T03:24:12;98929;;;18.38;86.26
4326;BME280;58429;49.826;10.880;2023-06-22T03:25:12;98929;;;18.38;86.2
4326;BME280;58429;49.826;10.880;2023-06-22T03:26:12;98933;;;18.37;86.14
4326;BME280;58429;49.826;10.880;2023-06-22T03:27:12;98926;;;18.38;86.14
4326;BME280;58429;49.826;10.880;2023-06-22T03:28:13;98926;;;18.39;86.1
4326;BME280;58429;49.826;10.880;2023-06-22T03:29:12;98924;;;18.38;86.1
4326;BME280;58429;49.826;10.880;2023-06-22T03:30:12;98914;;;18.37;86.1
4326;BME280;58429;49.826;10.880;2023-06-22T03:31:12;98906;;;18.37;86.05
4326;BME280;58429;49.826;10.880;2023-06-22T03:32:12;98905;;;18.39;86.04
4326;BME280;58429;49.826;10.880;2023-06-22T03:33:12;98901;;;18.38;86.01
4326;BME280;58429;49.826;10.880;2023-06-22T03:34:12;98890;;;18.39;86
4326;BME280;58429;49.826;10.880;2023-06-22T03:35:12;98894;;;18.39;85.98
4326;BME280;58429;49.826;10.880;2023-06-22T03:36:12;98889;;;18.37;85.91
4326;BME280;58429;49.826;10.880;2023-06-22T03:37:13;98892;;;18.36;85.91
4326;BME280;58429;49.826;10.880;2023-06-22T03:38:12;98883;;;18.4;85.82
4326;BME280;58429;49.826;10.880;2023-06-22T03:39:12;98872;;;18.37;85.85
4326;BME280;58429;49.826;10.880;2023-06-22T03:40:12;98869;;;18.38;85.87
4326;BME280;58429;49.826;10.880;2023-06-22T03:41:12;98862;;;18.37;85.89
4326;BME280;58429;49.826;10.880;2023-06-22T03:42:13;98852;;;18.39;85.88
4326;BME280;58429;49.826;10.880;2023-06-22T03:43:12;98856;;;18.41;85.87
4326;BME280;58429;49.826;10.880;2023-06-22T03:44:12;98849;;;18.4;85.83
4326;BME280;58429;49.826;10.880;2023-06-22T03:45:12;98848;;;18.39;85.82
4326;BME280;58429;49.826;10.880;2023-06-22T03:46:12;98848;;;18.37;85.87
4326;BME280;58429;49.826;10.880;2023-06-22T03:47:12;98839;;;18.36;85.88
4326;BME280;58429;49.826;10.880;2023-06-22T03:48:12;98834;;;18.37;85.93
4326;BME280;58429;49.826;10.880;2023-06-22T03:49:12;98832;;;18.36;85.93
4326;BME280;58429;49.826;10.880;2023-06-22T03:50:12;98825;;;18.37;85.98
4326;BME280;58429;49.826;10.880;2023-06-22T03:51:12;98821;;;18.4;86.05
4326;BME280;58429;49.826;10.880;2023-06-22T03:52:12;98816;;;18.39;86.09
4326;BME280;58429;49.826;10.880;2023-06-22T03:53:13;98807;;;18.4;86.21
4326;BME280;58429;49.826;10.880;2023-06-22T03:54:12;98809;;;18.42;86.21
4326;BME280;58429;49.826;10.880;2023-06-22T03:55:12;98803;;;18.44;86.23
4326;BME280;58429;49.826;10.880;2023-06-22T03:56:12;98792;;;18.46;86.24
4326;BME280;58429;49.826;10.880;2023-06-22T03:57:12;98793;;;18.42;86.27
4326;BME280;58429;49.826;10.880;2023-06-22T03:58:12;98798;;;18.45;86.25
4326;BME280;58429;49.826;10.880;2023-06-22T03:59:12;98790;;;18.52;86.29
4326;BME280;58429;49.826;10.880;2023-06-22T04:00:13;98783;;;18.5;86.32
4326;BME280;58429;49.826;10.880;2023-06-22T04:01:12;98792;;;18.53;86.32
4326;BME280;58429;49.826;10.880;2023-06-22T04:02:12;98785;;;18.55;86.4
4326;BME280;58429;49.826;10.880;2023-06-22T04:03:12;98784;;;18.57;86.43
4326;BME280;58429;49.826;10.880;2023-06-22T04:04:12;98786;;;18.57;86.39
4326;BME280;58429;49.826;10.880;2023-06-22T04:05:13;98779;;;18.59;86.44
4326;BME280;58429;49.826;10.880;2023-06-22T04:06:12;98778;;;18.61;86.46
4326;BME280;58429;49.826;10.880;2023-06-22T04:07:12;98777;;;18.61;86.41
4326;BME280;58429;49.826;10.880;2023-06-22T04:08:12;98770;;;18.62;86.38
4326;BME280;58429;49.826;10.880;2023-06-22T04:09:12;98771;;;18.61;86.36
4326;BME280;58429;49.826;10.880;2023-06-22T04:10:12;98780;;;18.64;86.32
4326;BME280;58429;49.826;10.880;2023-06-22T04:11:12;98773;;;18.64;86.31
4326;BME280;58429;49.826;10.880;2023-06-22T04:12:12;98780;;;18.69;86.27
4326;BME280;58429;49.826;10.880;2023-06-22T04:13:12;98780;;;18.67;86.27
4326;BME280;58429;49.826;10.880;2023-06-22T04:14:12;98775;;;18.68;86.25
4326;BME280;58429;49.826;10.880;2023-06-22T04:15:13;98776;;;18.69;86.25
4326;BME280;58429;49.826;10.880;2023-06-22T04:16:12;98772;;;18.74;86.27
4326;BME280;58429;49.826;10.880;2023-06-22T04:17:12;98770;;;18.76;86.26
4326;BME280;58429;49.826;10.880;2023-06-22T04:18:12;98767;;;18.72;86.24
4326;BME280;58429;49.826;10.880;2023-06-22T04:19:12;98764;;;18.78;86.33
4326;BME280;58429;49.826;10.880;2023-06-22T04:20:12;98759;;;18.8;86.41
4326;BME280;58429;49.826;10.880;2023-06-22T04:21:13;98761;;;18.8;86.38
4326;BME280;58429;49.826;10.880;2023-06-22T04:22:12;98754;;;18.82;86.39
4326;BME280;58429;49.826;10.880;2023-06-22T04:23:12;98761;;;18.81;86.4
4326;BME280;58429;49.826;10.880;2023-06-22T04:24:12;98758;;;18.84;86.35
4326;BME280;58429;49.826;10.880;2023-06-22T04:25:13;98752;;;18.84;86.27
4326;BME280;58429;49.826;10.880;2023-06-22T04:26:13;98753;;;18.85;86.19
4326;BME280;58429;49.826;10.880;2023-06-22T04:27:12;98757;;;18.87;86.1
4326;BME280;58429;49.826;10.880;2023-06-22T04:28:12;98752;;;18.88;86.09
4326;BME280;58429;49.826;10.880;2023-06-22T04:29:13;98760;;;18.88;86.01
4326;BME280;58429;49.826;10.880;2023-06-22T04:30:12;98763;;;18.91;86.01
4326;BME280;58429;49.826;10.880;2023-06-22T04:31:12;98762;;;18.94;85.95
4326;BME280;58429;49.826;10.880;2023-06-22T04:32:12;98767;;;19.02;85.94
4326;BME280;58429;49.826;10.880;2023-06-22T04:33:13;98771;;;18.99;85.93
4326;BME280;58429;49.826;10.880;2023-06-22T04:34:13;98765;;;19.02;85.84
4326;BME280;58429;49.826;10.880;2023-06-22T04:35:12;98768;;;19.02;85.86
4326;BME280;58429;49.826;10.880;2023-06-22T04:36:12;98759;;;19.02;85.88
4326;BME280;58429;49.826;10.880;2023-06-22T04:37:13;98766;;;19.07;85.91
4326;BME280;58429;49.826;10.880;2023-06-22T04:38:13;98757;;;19.12;85.9
4326;BME280;58429;49.826;10.880;2023-06-22T04:39:12;98763;;;19.08;85.96
4326;BME280;58429;49.826;10.880;2023-06-22T04:40:12;98763;;;19.12;86.02
4326;BME280;58429;49.826;10.880;2023-06-22T04:41:13;98755;;;19.12;85.94
4326;BME280;58429;49.826;10.880;2023-06-22T04:42:12;98763;;;19.17;85.99
4326;BME280;58429;49.826;10.880;2023-06-22T04:43:12;98753;;;19.2;86.02
4326;BME280;58429;49.826;10.880;2023-06-22T04:44:13;98760;;;19.15;86
4326;BME280;58429;49.826;10.880;2023-06-22T04:45:13;98756;;;19.23;86.04
4326;BME280;58429;49.826;10.880;2023-06-22T04:46:12;98752;;;19.28;86.04
4326;BME280;58429;49.826;10.880;2023-06-22T04:47:13;98754;;;19.3;86.06
4326;BME280;58429;49.826;10.880;2023-06-22T04:48:12;98757;;;19.31;86.03
4326;BME280;58429;49.826;10.880;2023-06-22T04:49:12;98757;;;19.32;86.05
4326;BME280;58429;49.826;10.880;2023-06-22T04:50:12;98759;;;19.31;86.19
4326;BME280;58429;49.826;10.880;2023-06-22T04:51:12;98755;;;19.35;86.21
4326;BME280;58429;49.826;10.880;2023-06-22T04:52:13;98756;;;19.36;86.21
4326;BME280;58429;49.826;10.880;2023-06-22T04:53:13;98765;;;19.39;86.54
4326;BME280;58429;49.826;10.880;2023-06-22T04:54:12;98755;;;19.35;86.46
4326;BME280;58429;49.826;10.880;2023-06-22T04:55:14;98756;;;19.38;86.34
4326;BME280;58429;49.826;10.880;2023-06-22T04:56:13;98759;;;19.39;86.16
4326;BME280;58429;49.826;10.880;2023-06-22T04:57:13;98760;;;19.41;86.1
4326;BME280;58429;49.826;10.880;2023-06-22T04:58:13;98766;;;19.45;86.04
4326;BME280;58429;49.826;10.880;2023-06-22T04:59:13;98757;;;19.47;85.98
4326;BME280;58429;49.826;10.880;2023-06-22T05:00:13;98756;;;19.51;85.89
4326;BME280;58429;49.826;10.880;2023-06-22T05:01:12;98757;;;19.53;85.81
4326;BME280;58429;49.826;10.880;2023-06-22T05:02:12;98757;;;19.55;85.72
4326;BME280;58429;49.826;10.880;2023-06-22T05:03:13;98752;;;19.55;85.66
4326;BME280;58429;49.826;10.880;2023-06-22T05:04:13;98752;;;19.59;85.68
4326;BME280;58429;49.826;10.880;2023-06-22T05:05:13;98756;;;19.61;85.64
4326;BME280;58429;49.826;10.880;2023-06-22T05:06:13;98758;;;19.67;85.68
4326;BME280;58429;49.826;10.880;2023-06-22T05:07:12;98762;;;19.63;85.61
4326;BME280;58429;49.826;10.880;2023-06-22T05:08:13;98757;;;19.7;85.65
4326;BME280;58429;49.826;10.880;2023-06-22T05:09:13;98752;;;19.66;85.51
4326;BME280;58429;49.826;10.880;2023-06-22T05:10:12;98749;;;19.73;85.47
4326;BME280;58429;49.826;10.880;2023-06-22T05:11:13;98747;;;19.79;85.43
4326;BME280;58429;49.826;10.880;2023-06-22T05:12:13;98745;;;19.81;85.39
4326;BME280;58429;49.826;10.880;2023-06-22T05:13:13;98734;;;19.81;85.42
4326;BME280;58429;49.826;10.880;2023-06-22T05:14:13;98740;;;19.85;85.34
4326;BME280;58429;49.826;10.880;2023-06-22T05:15:13;98740;;;19.87;85.38
4326;BME280;58429;49.826;10.880;2023-06-22T05:16:13;98746;;;19.92;85.53
4326;BME280;58429;49.826;10.880;2023-06-22T05:17:13;98743;;;19.92;85.56
4326;BME280;58429;49.826;10.880;2023-06-22T05:18:13;98747;;;19.92;85.53
4326;BME280;58429;49.826;10.880;2023-06-22T05:19:13;98744;;;19.98;85.53
4326;BME280;58429;49.826;10.880;2023-06-22T05:20:13;98745;;;20.04;85.56
4326;BME280;58429;49.826;10.880;2023-06-22T05:21:13;98740;;;20.06;85.51
4326;BME280;58429;49.826;10.880;2023-06-22T05:22:13;98740;;;20.05;85.44
4326;BME280;58429;49.826;10.880;2023-06-22T05:23:13;98749;;;20.08;85.41
4326;BME280;58429;49.826;10.880;2023-06-22T05:24:13;98748;;;20.12;85.32
4326;BME280;58429;49.826;10.880;2023-06-22T05:25:13;98754;;;20.16;85.3
4326;BME280;58429;49.826;10.880;2023-06-22T05:26:13;98750;;;20.18;85.22
4326;BME280;58429;49.826;10.880;2023-06-22T05:27:13;98755;;;20.22;85.2
4326;BME280;58429;49.826;10.880;2023-06-22T05:28:13;98747;;;20.28;85.18
4326;BME280;58429;49.826;10.880;2023-06-22T05:29:13;98752;;;20.25;85.06
4326;BME280;58429;49.826;10.880;2023-06-22T05:30:13;98750;;;20.31;85.01
4326;BME280;58429;49.826;10.880;2023-06-22T05:31:13;98746;;;20.34;84.96